sensor_id;sensor_type;location;lat;lon;timestamp;P1;durP1;ratioP1;P2;durP2;ratioP2
19167;SDS011;9716;53.114;18.040;2024-02-26T00:00:05;40.10;;;16.17;;
19167;SDS011;9716;53.114;18.040;2024-02-26T00:02:36;39.23;;;15.60;;
19167;SDS011;9716;53.114;18.040;2024-02-26T00:05:07;42.23;;;17.63;;
19167;SDS011;9716;53.114;18.040;2024-02-26T00:07:36;44.03;;;17.33;;
19167;SDS011;9716;53.114;18.040;2024-02-26T00:10:06;51.13;;;17.10;;
19167;SDS011;9716;53.114;18.040;2024-02-26T00:12:36;39.77;;;15.50;;
19167;SDS011;9716;53.114;18.040;2024-02-26T00:15:06;42.53;;;15.47;;
19167;SDS011;9716;53.114;18.040;2024-02-26T00:17:36;40.77;;;17.87;;
19167;SDS011;9716;53.114;18.040;2024-02-26T00:20:06;51.67;;;17.77;;
19167;SDS011;9716;53.114;18.040;2024-02-26T00:22:36;47.63;;;17.40;;
19167;SDS011;9716;53.114;18.040;2024-02-26T00:25:05;38.70;;;16.50;;
19167;SDS011;9716;53.114;18.040;2024-02-26T00:27:34;48.63;;;18.87;;
19167;SDS011;9716;53.114;18.040;2024-02-26T00:30:05;43.43;;;17.77;;
19167;SDS011;9716;53.114;18.040;2024-02-26T00:32:34;43.23;;;17.20;;
19167;SDS011;9716;53.114;18.040;2024-02-26T00:35:04;40.20;;;16.97;;
19167;SDS011;9716;53.114;18.040;2024-02-26T00:37:33;39.07;;;16.17;;
19167;SDS011;9716;53.114;18.040;2024-02-26T00:40:02;37.90;;;16.87;;
19167;SDS011;9716;53.114;18.040;2024-02-26T00:42:31;34.47;;;15.37;;
19167;SDS011;9716;53.114;18.040;2024-02-26T00:45:00;41.70;;;16.30;;
19167;SDS011;9716;53.114;18.040;2024-02-26T00:47:31;34.83;;;15.17;;
19167;SDS011;9716;53.114;18.040;2024-02-26T00:49:59;37.03;;;16.57;;
19167;SDS011;9716;53.114;18.040;2024-02-26T00:52:28;41.40;;;16.37;;
19167;SDS011;9716;53.114;18.040;2024-02-26T00:54:57;32.63;;;13.97;;
19167;SDS011;9716;53.114;18.040;2024-02-26T00:57:26;38.30;;;15.40;;
19167;SDS011;9716;53.114;18.040;2024-02-26T00:59:54;37.17;;;13.03;;
19167;SDS011;9716;53.114;18.040;2024-02-26T01:02:23;31.00;;;12.60;;
19167;SDS011;9716;53.114;18.040;2024-02-26T01:04:54;31.40;;;14.10;;
19167;SDS011;9716;53.114;18.040;2024-02-26T01:07:22;30.27;;;13.80;;
19167;SDS011;9716;53.114;18.040;2024-02-26T01:09:51;31.23;;;14.70;;
19167;SDS011;9716;53.114;18.040;2024-02-26T01:12:20;31.07;;;15.70;;
19167;SDS011;9716;53.114;18.040;2024-02-26T01:14:48;30.97;;;13.97;;
19167;SDS011;9716;53.114;18.040;2024-02-26T01:17:17;30.40;;;13.73;;
19167;SDS011;9716;53.114;18.040;2024-02-26T01:19:46;33.13;;;14.20;;
19167;SDS011;9716;53.114;18.040;2024-02-26T01:22:16;30.10;;;13.50;;
19167;SDS011;9716;53.114;18.040;2024-02-26T01:24:46;34.27;;;15.13;;
19167;SDS011;9716;53.114;18.040;2024-02-26T01:27:15;30.70;;;13.23;;
19167;SDS011;9716;53.114;18.040;2024-02-26T01:29:44;28.80;;;13.57;;
19167;SDS011;9716;53.114;18.040;2024-02-26T01:32:13;29.43;;;13.60;;
19167;SDS011;9716;53.114;18.040;2024-02-26T01:34:41;30.37;;;12.70;;
19167;SDS011;9716;53.114;18.040;2024-02-26T01:37:10;30.13;;;14.33;;
19167;SDS011;9716;53.114;18.040;2024-02-26T01:39:40;37.67;;;14.17;;
19167;SDS011;9716;53.114;18.040;2024-02-26T01:42:09;35.70;;;13.93;;
19167;SDS011;9716;53.114;18.040;2024-02-26T01:44:37;28.60;;;13.40;;
19167;SDS011;9716;53.114;18.040;2024-02-26T01:47:07;29.13;;;14.03;;
19167;SDS011;9716;53.114;18.040;2024-02-26T01:49:38;26.47;;;13.23;;
19167;SDS011;9716;53.114;18.040;2024-02-26T01:52:07;34.87;;;14.20;;
19167;SDS011;9716;53.114;18.040;2024-02-26T01:54:37;33.87;;;13.00;;
19167;SDS011;9716;53.114;18.040;2024-02-26T01:57:08;28.93;;;12.57;;
19167;SDS011;9716;53.114;18.040;2024-02-26T01:59:37;30.47;;;12.77;;
19167;SDS011;9716;53.114;18.040;2024-02-26T02:02:07;25.90;;;11.90;;
19167;SDS011;9716;53.114;18.040;2024-02-26T02:04:38;24.63;;;11.90;;
19167;SDS011;9716;53.114;18.040;2024-02-26T02:07:07;29.80;;;12.80;;
19167;SDS011;9716;53.114;18.040;2024-02-26T02:09:36;32.47;;;12.40;;
19167;SDS011;9716;53.114;18.040;2024-02-26T02:12:06;25.90;;;11.90;;
19167;SDS011;9716;53.114;18.040;2024-02-26T02:14:36;25.67;;;11.67;;
19167;SDS011;9716;53.114;18.040;2024-02-26T02:17:05;32.20;;;12.77;;
19167;SDS011;9716;53.114;18.040;2024-02-26T02:19:33;24.73;;;11.57;;
19167;SDS011;9716;53.114;18.040;2024-02-26T02:22:03;24.93;;;11.73;;
19167;SDS011;9716;53.114;18.040;2024-02-26T02:24:32;27.10;;;12.07;;
19167;SDS011;9716;53.114;18.040;2024-02-26T02:27:01;28.10;;;12.77;;
19167;SDS011;9716;53.114;18.040;2024-02-26T02:29:30;26.30;;;11.77;;
19167;SDS011;9716;53.114;18.040;2024-02-26T02:32:01;36.63;;;14.07;;
19167;SDS011;9716;53.114;18.040;2024-02-26T02:34:31;30.87;;;12.20;;
19167;SDS011;9716;53.114;18.040;2024-02-26T02:37:01;29.20;;;13.33;;
19167;SDS011;9716;53.114;18.040;2024-02-26T02:39:31;23.93;;;12.10;;
19167;SDS011;9716;53.114;18.040;2024-02-26T02:41:59;26.60;;;12.57;;
19167;SDS011;9716;53.114;18.040;2024-02-26T02:44:28;25.23;;;11.80;;
19167;SDS011;9716;53.114;18.040;2024-02-26T02:46:57;37.17;;;14.13;;
19167;SDS011;9716;53.114;18.040;2024-02-26T02:49:26;23.40;;;10.93;;
19167;SDS011;9716;53.114;18.040;2024-02-26T02:51:55;23.30;;;11.43;;
19167;SDS011;9716;53.114;18.040;2024-02-26T02:54:24;26.17;;;11.30;;
19167;SDS011;9716;53.114;18.040;2024-02-26T02:56:54;28.27;;;13.67;;
19167;SDS011;9716;53.114;18.040;2024-02-26T02:59:23;26.93;;;12.77;;
19167;SDS011;9716;53.114;18.040;2024-02-26T03:01:52;26.53;;;11.47;;
19167;SDS011;9716;53.114;18.040;2024-02-26T03:04:22;28.90;;;13.73;;
19167;SDS011;9716;53.114;18.040;2024-02-26T03:06:51;23.83;;;12.10;;
19167;SDS011;9716;53.114;18.040;2024-02-26T03:09:20;23.00;;;10.97;;
19167;SDS011;9716;53.114;18.040;2024-02-26T03:11:50;29.27;;;12.03;;
19167;SDS011;9716;53.114;18.040;2024-02-26T03:14:20;25.57;;;11.77;;
19167;SDS011;9716;53.114;18.040;2024-02-26T03:16:49;24.87;;;11.27;;
19167;SDS011;9716;53.114;18.040;2024-02-26T03:19:21;29.50;;;13.63;;
19167;SDS011;9716;53.114;18.040;2024-02-26T03:21:52;24.47;;;12.67;;
19167;SDS011;9716;53.114;18.040;2024-02-26T03:24:20;24.97;;;12.43;;
19167;SDS011;9716;53.114;18.040;2024-02-26T03:26:49;29.80;;;13.40;;
19167;SDS011;9716;53.114;18.040;2024-02-26T03:29:20;27.50;;;12.00;;
19167;SDS011;9716;53.114;18.040;2024-02-26T03:31:49;27.93;;;11.93;;
19167;SDS011;9716;53.114;18.040;2024-02-26T03:34:18;27.10;;;12.27;;
19167;SDS011;9716;53.114;18.040;2024-02-26T03:36:47;30.53;;;12.37;;
19167;SDS011;9716;53.114;18.040;2024-02-26T03:39:16;32.87;;;12.90;;
19167;SDS011;9716;53.114;18.040;2024-02-26T03:41:44;29.67;;;12.77;;
19167;SDS011;9716;53.114;18.040;2024-02-26T03:44:13;24.83;;;10.57;;
19167;SDS011;9716;53.114;18.040;2024-02-26T03:46:43;25.80;;;12.13;;
19167;SDS011;9716;53.114;18.040;2024-02-26T03:49:12;30.53;;;11.33;;
19167;SDS011;9716;53.114;18.040;2024-02-26T03:51:41;27.57;;;11.10;;
19167;SDS011;9716;53.114;18.040;2024-02-26T03:54:10;24.70;;;11.40;;
19167;SDS011;9716;53.114;18.040;2024-02-26T03:56:39;47.97;;;12.03;;
19167;SDS011;9716;53.114;18.040;2024-02-26T03:59:08;28.43;;;11.70;;
19167;SDS011;9716;53.114;18.040;2024-02-26T04:01:37;23.83;;;10.53;;
19167;SDS011;9716;53.114;18.040;2024-02-26T04:04:07;23.47;;;10.17;;
19167;SDS011;9716;53.114;18.040;2024-02-26T04:06:36;31.67;;;11.97;;
19167;SDS011;9716;53.114;18.040;2024-02-26T04:09:05;34.30;;;10.70;;
19167;SDS011;9716;53.114;18.040;2024-02-26T04:11:34;35.40;;;12.53;;
19167;SDS011;9716;53.114;18.040;2024-02-26T04:14:02;24.10;;;10.37;;
19167;SDS011;9716;53.114;18.040;2024-02-26T04:16:32;25.30;;;11.77;;
19167;SDS011;9716;53.114;18.040;2024-02-26T04:19:01;23.77;;;11.23;;
19167;SDS011;9716;53.114;18.040;2024-02-26T04:21:31;26.20;;;10.43;;
19167;SDS011;9716;53.114;18.040;2024-02-26T04:24:00;24.73;;;10.67;;
19167;SDS011;9716;53.114;18.040;2024-02-26T04:26:30;22.07;;;10.63;;
19167;SDS011;9716;53.114;18.040;2024-02-26T04:28:59;25.53;;;10.70;;
19167;SDS011;9716;53.114;18.040;2024-02-26T04:31:27;25.37;;;10.90;;
19167;SDS011;9716;53.114;18.040;2024-02-26T04:33:57;27.77;;;10.60;;
19167;SDS011;9716;53.114;18.040;2024-02-26T04:36:26;26.20;;;11.23;;
19167;SDS011;9716;53.114;18.040;2024-02-26T04:38:59;26.10;;;10.70;;
19167;SDS011;9716;53.114;18.040;2024-02-26T04:41:28;20.90;;;9.63;;
19167;SDS011;9716;53.114;18.040;2024-02-26T04:43:57;18.40;;;9.77;;
19167;SDS011;9716;53.114;18.040;2024-02-26T04:46:25;25.53;;;10.73;;
19167;SDS011;9716;53.114;18.040;2024-02-26T04:48:55;24.53;;;11.90;;
19167;SDS011;9716;53.114;18.040;2024-02-26T04:51:24;25.57;;;11.03;;
19167;SDS011;9716;53.114;18.040;2024-02-26T04:53:53;18.73;;;10.47;;
19167;SDS011;9716;53.114;18.040;2024-02-26T04:56:23;22.33;;;9.77;;
19167;SDS011;9716;53.114;18.040;2024-02-26T04:58:53;20.97;;;11.67;;
19167;SDS011;9716;53.114;18.040;2024-02-26T05:01:21;19.33;;;10.60;;
19167;SDS011;9716;53.114;18.040;2024-02-26T05:03:51;19.17;;;9.80;;
19167;SDS011;9716;53.114;18.040;2024-02-26T05:06:20;24.80;;;10.93;;
19167;SDS011;9716;53.114;18.040;2024-02-26T05:08:48;20.57;;;9.40;;
19167;SDS011;9716;53.114;18.040;2024-02-26T05:11:17;20.23;;;9.57;;
19167;SDS011;9716;53.114;18.040;2024-02-26T05:13:48;21.90;;;10.00;;
19167;SDS011;9716;53.114;18.040;2024-02-26T05:16:17;35.40;;;11.07;;
19167;SDS011;9716;53.114;18.040;2024-02-26T05:18:48;25.53;;;10.00;;
19167;SDS011;9716;53.114;18.040;2024-02-26T05:21:16;20.37;;;9.27;;
19167;SDS011;9716;53.114;18.040;2024-02-26T05:23:45;15.77;;;8.73;;
19167;SDS011;9716;53.114;18.040;2024-02-26T05:26:19;16.23;;;9.13;;
19167;SDS011;9716;53.114;18.040;2024-02-26T05:28:50;20.73;;;9.70;;
19167;SDS011;9716;53.114;18.040;2024-02-26T05:31:18;16.83;;;9.37;;
19167;SDS011;9716;53.114;18.040;2024-02-26T05:33:47;20.60;;;9.77;;
19167;SDS011;9716;53.114;18.040;2024-02-26T05:36:19;20.47;;;9.50;;
19167;SDS011;9716;53.114;18.040;2024-02-26T05:38:49;17.83;;;8.90;;
19167;SDS011;9716;53.114;18.040;2024-02-26T05:41:18;20.33;;;9.00;;
19167;SDS011;9716;53.114;18.040;2024-02-26T05:43:52;22.03;;;9.27;;
19167;SDS011;9716;53.114;18.040;2024-02-26T05:46:21;17.87;;;8.70;;
19167;SDS011;9716;53.114;18.040;2024-02-26T05:48:51;19.03;;;8.80;;
19167;SDS011;9716;53.114;18.040;2024-02-26T05:51:20;19.60;;;9.77;;
19167;SDS011;9716;53.114;18.040;2024-02-26T05:53:49;19.43;;;8.53;;
19167;SDS011;9716;53.114;18.040;2024-02-26T05:56:22;20.30;;;10.00;;
19167;SDS011;9716;53.114;18.040;2024-02-26T05:58:52;20.10;;;9.90;;
19167;SDS011;9716;53.114;18.040;2024-02-26T06:01:21;20.37;;;9.47;;
19167;SDS011;9716;53.114;18.040;2024-02-26T06:03:51;20.13;;;9.40;;
19167;SDS011;9716;53.114;18.040;2024-02-26T06:06:20;18.90;;;9.10;;
19167;SDS011;9716;53.114;18.040;2024-02-26T06:08:50;18.97;;;9.37;;
19167;SDS011;9716;53.114;18.040;2024-02-26T06:11:19;22.13;;;9.30;;
19167;SDS011;9716;53.114;18.040;2024-02-26T06:13:51;20.90;;;11.37;;
19167;SDS011;9716;53.114;18.040;2024-02-26T06:16:20;22.73;;;11.10;;
19167;SDS011;9716;53.114;18.040;2024-02-26T06:18:49;24.87;;;12.13;;
19167;SDS011;9716;53.114;18.040;2024-02-26T06:21:18;31.07;;;12.57;;
19167;SDS011;9716;53.114;18.040;2024-02-26T06:23:47;28.17;;;12.97;;
19167;SDS011;9716;53.114;18.040;2024-02-26T06:26:16;25.93;;;12.53;;
19167;SDS011;9716;53.114;18.040;2024-02-26T06:28:45;28.57;;;13.77;;
19167;SDS011;9716;53.114;18.040;2024-02-26T06:31:15;29.67;;;12.10;;
19167;SDS011;9716;53.114;18.040;2024-02-26T06:33:44;29.10;;;13.37;;
19167;SDS011;9716;53.114;18.040;2024-02-26T06:36:13;33.23;;;12.93;;
19167;SDS011;9716;53.114;18.040;2024-02-26T06:38:42;28.10;;;12.93;;
19167;SDS011;9716;53.114;18.040;2024-02-26T06:41:11;31.27;;;13.43;;
19167;SDS011;9716;53.114;18.040;2024-02-26T06:43:39;26.87;;;13.13;;
19167;SDS011;9716;53.114;18.040;2024-02-26T06:46:08;27.77;;;12.10;;
19167;SDS011;9716;53.114;18.040;2024-02-26T06:48:38;37.47;;;14.03;;
19167;SDS011;9716;53.114;18.040;2024-02-26T06:51:07;26.43;;;13.60;;
19167;SDS011;9716;53.114;18.040;2024-02-26T06:53:36;39.33;;;14.57;;
19167;SDS011;9716;53.114;18.040;2024-02-26T06:56:05;27.50;;;12.50;;
19167;SDS011;9716;53.114;18.040;2024-02-26T06:58:34;27.07;;;12.67;;
19167;SDS011;9716;53.114;18.040;2024-02-26T07:01:03;35.23;;;14.10;;
19167;SDS011;9716;53.114;18.040;2024-02-26T07:03:31;28.43;;;11.63;;
19167;SDS011;9716;53.114;18.040;2024-02-26T07:06:02;30.03;;;12.97;;
19167;SDS011;9716;53.114;18.040;2024-02-26T07:08:31;35.97;;;14.60;;
19167;SDS011;9716;53.114;18.040;2024-02-26T07:11:03;31.53;;;13.63;;
19167;SDS011;9716;53.114;18.040;2024-02-26T07:13:35;33.23;;;12.43;;
19167;SDS011;9716;53.114;18.040;2024-02-26T07:16:04;59.50;;;16.37;;
19167;SDS011;9716;53.114;18.040;2024-02-26T07:18:33;36.67;;;15.93;;
19167;SDS011;9716;53.114;18.040;2024-02-26T07:21:04;59.83;;;16.63;;
19167;SDS011;9716;53.114;18.040;2024-02-26T07:23:33;31.87;;;13.27;;
19167;SDS011;9716;53.114;18.040;2024-02-26T07:26:02;32.70;;;14.13;;
19167;SDS011;9716;53.114;18.040;2024-02-26T07:28:31;40.97;;;15.77;;
19167;SDS011;9716;53.114;18.040;2024-02-26T07:31:00;32.10;;;13.40;;
19167;SDS011;9716;53.114;18.040;2024-02-26T07:33:30;33.43;;;14.20;;
19167;SDS011;9716;53.114;18.040;2024-02-26T07:35:59;30.23;;;14.27;;
19167;SDS011;9716;53.114;18.040;2024-02-26T07:38:29;38.23;;;16.43;;
19167;SDS011;9716;53.114;18.040;2024-02-26T07:41:09;32.43;;;13.63;;
19167;SDS011;9716;53.114;18.040;2024-02-26T07:43:37;37.33;;;14.57;;
19167;SDS011;9716;53.114;18.040;2024-02-26T07:46:07;37.83;;;15.67;;
19167;SDS011;9716;53.114;18.040;2024-02-26T07:48:39;36.20;;;15.80;;
19167;SDS011;9716;53.114;18.040;2024-02-26T07:51:11;31.73;;;13.23;;
19167;SDS011;9716;53.114;18.040;2024-02-26T07:53:41;42.63;;;15.57;;
19167;SDS011;9716;53.114;18.040;2024-02-26T07:56:10;32.87;;;14.20;;
19167;SDS011;9716;53.114;18.040;2024-02-26T07:58:39;37.10;;;16.53;;
19167;SDS011;9716;53.114;18.040;2024-02-26T08:01:08;37.40;;;15.77;;
19167;SDS011;9716;53.114;18.040;2024-02-26T08:03:37;29.27;;;14.90;;
19167;SDS011;9716;53.114;18.040;2024-02-26T08:06:07;43.87;;;16.43;;
19167;SDS011;9716;53.114;18.040;2024-02-26T08:08:36;40.20;;;17.00;;
19167;SDS011;9716;53.114;18.040;2024-02-26T08:11:06;67.87;;;16.87;;
19167;SDS011;9716;53.114;18.040;2024-02-26T08:13:35;53.47;;;19.83;;
19167;SDS011;9716;53.114;18.040;2024-02-26T08:16:04;40.87;;;18.00;;
19167;SDS011;9716;53.114;18.040;2024-02-26T08:18:34;38.10;;;16.13;;
19167;SDS011;9716;53.114;18.040;2024-02-26T08:21:04;42.00;;;17.80;;
19167;SDS011;9716;53.114;18.040;2024-02-26T08:23:32;54.97;;;18.33;;
19167;SDS011;9716;53.114;18.040;2024-02-26T08:26:01;75.50;;;22.40;;
19167;SDS011;9716;53.114;18.040;2024-02-26T08:28:32;84.23;;;23.03;;
19167;SDS011;9716;53.114;18.040;2024-02-26T08:31:01;46.50;;;20.83;;
19167;SDS011;9716;53.114;18.040;2024-02-26T08:33:30;56.00;;;20.73;;
19167;SDS011;9716;53.114;18.040;2024-02-26T08:36:03;49.73;;;21.07;;
19167;SDS011;9716;53.114;18.040;2024-02-26T08:38:33;41.23;;;17.67;;
19167;SDS011;9716;53.114;18.040;2024-02-26T08:41:02;51.17;;;20.57;;
19167;SDS011;9716;53.114;18.040;2024-02-26T08:43:33;54.67;;;19.50;;
19167;SDS011;9716;53.114;18.040;2024-02-26T08:46:02;54.83;;;21.53;;
19167;SDS011;9716;53.114;18.040;2024-02-26T08:48:31;67.27;;;22.70;;
19167;SDS011;9716;53.114;18.040;2024-02-26T08:51:00;68.80;;;21.40;;
19167;SDS011;9716;53.114;18.040;2024-02-26T08:53:33;52.40;;;21.07;;
19167;SDS011;9716;53.114;18.040;2024-02-26T08:56:12;61.17;;;22.40;;
19167;SDS011;9716;53.114;18.040;2024-02-26T08:58:46;47.53;;;21.63;;
19167;SDS011;9716;53.114;18.040;2024-02-26T09:01:18;50.20;;;19.37;;
19167;SDS011;9716;53.114;18.040;2024-02-26T09:03:47;60.37;;;22.07;;
19167;SDS011;9716;53.114;18.040;2024-02-26T09:06:17;45.77;;;20.07;;
19167;SDS011;9716;53.114;18.040;2024-02-26T09:08:46;55.63;;;21.17;;
19167;SDS011;9716;53.114;18.040;2024-02-26T09:11:14;59.20;;;22.67;;
19167;SDS011;9716;53.114;18.040;2024-02-26T09:13:43;56.03;;;21.90;;
19167;SDS011;9716;53.114;18.040;2024-02-26T09:16:14;55.57;;;21.87;;
19167;SDS011;9716;53.114;18.040;2024-02-26T09:18:43;58.93;;;22.10;;
19167;SDS011;9716;53.114;18.040;2024-02-26T09:21:12;55.53;;;23.17;;
19167;SDS011;9716;53.114;18.040;2024-02-26T09:23:42;61.53;;;20.47;;
19167;SDS011;9716;53.114;18.040;2024-02-26T09:26:11;58.83;;;22.50;;
19167;SDS011;9716;53.114;18.040;2024-02-26T09:28:39;60.10;;;21.07;;
19167;SDS011;9716;53.114;18.040;2024-02-26T09:31:08;52.63;;;21.53;;
19167;SDS011;9716;53.114;18.040;2024-02-26T09:33:38;53.13;;;20.50;;
19167;SDS011;9716;53.114;18.040;2024-02-26T09:36:07;49.07;;;21.03;;
19167;SDS011;9716;53.114;18.040;2024-02-26T09:38:37;43.80;;;18.57;;
19167;SDS011;9716;53.114;18.040;2024-02-26T09:41:22;40.33;;;17.00;;
19167;SDS011;9716;53.114;18.040;2024-02-26T09:43:50;51.67;;;22.33;;
19167;SDS011;9716;53.114;18.040;2024-02-26T09:46:24;41.00;;;17.77;;
19167;SDS011;9716;53.114;18.040;2024-02-26T09:48:55;41.73;;;17.77;;
19167;SDS011;9716;53.114;18.040;2024-02-26T09:51:24;37.07;;;15.87;;
19167;SDS011;9716;53.114;18.040;2024-02-26T09:53:54;34.70;;;15.00;;
19167;SDS011;9716;53.114;18.040;2024-02-26T09:56:24;42.30;;;16.55;;
19167;SDS011;9716;53.114;18.040;2024-02-26T09:58:53;35.53;;;14.83;;
19167;SDS011;9716;53.114;18.040;2024-02-26T10:01:25;28.50;;;14.00;;
19167;SDS011;9716;53.114;18.040;2024-02-26T10:03:56;26.52;;;13.43;;
19167;SDS011;9716;53.114;18.040;2024-02-26T10:06:26;34.13;;;15.15;;
19167;SDS011;9716;53.114;18.040;2024-02-26T10:08:55;37.28;;;14.63;;
19167;SDS011;9716;53.114;18.040;2024-02-26T10:11:26;31.15;;;12.70;;
19167;SDS011;9716;53.114;18.040;2024-02-26T10:13:55;27.20;;;11.95;;
19167;SDS011;9716;53.114;18.040;2024-02-26T10:16:24;28.90;;;12.98;;
19167;SDS011;9716;53.114;18.040;2024-02-26T10:18:53;26.60;;;12.27;;
19167;SDS011;9716;53.114;18.040;2024-02-26T10:21:27;33.67;;;12.45;;
19167;SDS011;9716;53.114;18.040;2024-02-26T10:23:56;27.52;;;13.27;;
19167;SDS011;9716;53.114;18.040;2024-02-26T10:26:25;22.25;;;11.65;;
19167;SDS011;9716;53.114;18.040;2024-02-26T10:28:53;29.45;;;12.65;;
19167;SDS011;9716;53.114;18.040;2024-02-26T10:31:29;30.40;;;12.18;;
19167;SDS011;9716;53.114;18.040;2024-02-26T10:33:57;30.88;;;13.20;;
19167;SDS011;9716;53.114;18.040;2024-02-26T10:36:34;25.23;;;12.20;;
19167;SDS011;9716;53.114;18.040;2024-02-26T10:39:17;27.92;;;12.07;;
19167;SDS011;9716;53.114;18.040;2024-02-26T10:41:46;26.23;;;11.40;;
19167;SDS011;9716;53.114;18.040;2024-02-26T10:44:15;27.27;;;11.15;;
19167;SDS011;9716;53.114;18.040;2024-02-26T10:46:46;27.50;;;11.25;;
19167;SDS011;9716;53.114;18.040;2024-02-26T10:49:16;21.70;;;10.90;;
19167;SDS011;9716;53.114;18.040;2024-02-26T10:51:51;28.25;;;10.73;;
19167;SDS011;9716;53.114;18.040;2024-02-26T10:54:26;23.25;;;11.20;;
19167;SDS011;9716;53.114;18.040;2024-02-26T10:56:57;28.77;;;10.48;;
19167;SDS011;9716;53.114;18.040;2024-02-26T10:59:27;19.33;;;9.55;;
19167;SDS011;9716;53.114;18.040;2024-02-26T11:01:57;21.35;;;10.23;;
19167;SDS011;9716;53.114;18.040;2024-02-26T11:04:26;26.17;;;11.43;;
19167;SDS011;9716;53.114;18.040;2024-02-26T11:06:58;26.13;;;11.93;;
19167;SDS011;9716;53.114;18.040;2024-02-26T11:09:28;26.58;;;10.38;;
19167;SDS011;9716;53.114;18.040;2024-02-26T11:11:57;20.73;;;10.38;;
19167;SDS011;9716;53.114;18.040;2024-02-26T11:14:27;24.45;;;9.98;;
19167;SDS011;9716;53.114;18.040;2024-02-26T11:16:58;21.33;;;10.68;;
19167;SDS011;9716;53.114;18.040;2024-02-26T11:19:27;21.00;;;10.25;;
19167;SDS011;9716;53.114;18.040;2024-02-26T11:22:04;23.55;;;11.20;;
19167;SDS011;9716;53.114;18.040;2024-02-26T11:24:46;19.27;;;9.55;;
19167;SDS011;9716;53.114;18.040;2024-02-26T11:27:16;22.80;;;9.75;;
19167;SDS011;9716;53.114;18.040;2024-02-26T11:29:47;24.85;;;10.23;;
19167;SDS011;9716;53.114;18.040;2024-02-26T11:32:22;29.00;;;10.43;;
19167;SDS011;9716;53.114;18.040;2024-02-26T11:34:51;19.25;;;8.80;;
19167;SDS011;9716;53.114;18.040;2024-02-26T11:37:21;21.08;;;9.73;;
19167;SDS011;9716;53.114;18.040;2024-02-26T11:39:51;23.83;;;9.35;;
19167;SDS011;9716;53.114;18.040;2024-02-26T11:42:22;26.80;;;10.48;;
19167;SDS011;9716;53.114;18.040;2024-02-26T11:44:53;22.38;;;9.50;;
19167;SDS011;9716;53.114;18.040;2024-02-26T11:47:23;22.48;;;8.80;;
19167;SDS011;9716;53.114;18.040;2024-02-26T11:49:51;24.27;;;9.63;;
19167;SDS011;9716;53.114;18.040;2024-02-26T11:52:22;23.88;;;9.63;;
19167;SDS011;9716;53.114;18.040;2024-02-26T11:54:51;23.05;;;10.05;;
19167;SDS011;9716;53.114;18.040;2024-02-26T11:57:24;23.92;;;9.82;;
19167;SDS011;9716;53.114;18.040;2024-02-26T11:59:55;19.95;;;10.00;;
19167;SDS011;9716;53.114;18.040;2024-02-26T12:02:38;18.17;;;9.80;;
19167;SDS011;9716;53.114;18.040;2024-02-26T12:05:12;23.65;;;10.23;;
19167;SDS011;9716;53.114;18.040;2024-02-26T12:07:45;22.27;;;10.57;;
19167;SDS011;9716;53.114;18.040;2024-02-26T12:10:15;19.65;;;8.85;;
19167;SDS011;9716;53.114;18.040;2024-02-26T12:12:48;27.45;;;10.23;;
19167;SDS011;9716;53.114;18.040;2024-02-26T12:15:17;23.52;;;9.13;;
19167;SDS011;9716;53.114;18.040;2024-02-26T12:17:48;23.48;;;10.23;;
19167;SDS011;9716;53.114;18.040;2024-02-26T12:20:18;24.42;;;10.38;;
19167;SDS011;9716;53.114;18.040;2024-02-26T12:22:49;22.63;;;10.15;;
19167;SDS011;9716;53.114;18.040;2024-02-26T12:25:21;26.33;;;9.68;;
19167;SDS011;9716;53.114;18.040;2024-02-26T12:27:51;23.65;;;10.93;;
19167;SDS011;9716;53.114;18.040;2024-02-26T12:30:20;25.88;;;11.00;;
19167;SDS011;9716;53.114;18.040;2024-02-26T12:32:50;23.20;;;9.35;;
19167;SDS011;9716;53.114;18.040;2024-02-26T12:35:24;24.90;;;9.98;;
19167;SDS011;9716;53.114;18.040;2024-02-26T12:37:54;23.92;;;9.35;;
19167;SDS011;9716;53.114;18.040;2024-02-26T12:40:23;22.38;;;9.43;;
19167;SDS011;9716;53.114;18.040;2024-02-26T12:42:53;29.08;;;11.68;;
19167;SDS011;9716;53.114;18.040;2024-02-26T12:45:22;30.83;;;11.02;;
19167;SDS011;9716;53.114;18.040;2024-02-26T12:47:53;29.13;;;10.50;;
19167;SDS011;9716;53.114;18.040;2024-02-26T12:50:23;31.88;;;11.63;;
19167;SDS011;9716;53.114;18.040;2024-02-26T12:52:52;26.40;;;10.98;;
19167;SDS011;9716;53.114;18.040;2024-02-26T12:55:22;23.33;;;10.82;;
19167;SDS011;9716;53.114;18.040;2024-02-26T12:57:51;31.60;;;10.13;;
19167;SDS011;9716;53.114;18.040;2024-02-26T13:00:21;25.40;;;8.23;;
19167;SDS011;9716;53.114;18.040;2024-02-26T13:02:52;21.98;;;8.23;;
19167;SDS011;9716;53.114;18.040;2024-02-26T13:05:23;30.17;;;9.50;;
19167;SDS011;9716;53.114;18.040;2024-02-26T13:07:54;20.88;;;8.98;;
19167;SDS011;9716;53.114;18.040;2024-02-26T13:10:23;29.20;;;10.27;;
19167;SDS011;9716;53.114;18.040;2024-02-26T13:12:52;21.05;;;9.05;;
19167;SDS011;9716;53.114;18.040;2024-02-26T13:15:21;23.08;;;8.95;;
19167;SDS011;9716;53.114;18.040;2024-02-26T13:17:50;18.55;;;7.20;;
19167;SDS011;9716;53.114;18.040;2024-02-26T13:20:26;23.52;;;9.38;;
19167;SDS011;9716;53.114;18.040;2024-02-26T13:23:01;16.80;;;7.28;;
19167;SDS011;9716;53.114;18.040;2024-02-26T13:25:32;21.63;;;8.82;;
19167;SDS011;9716;53.114;18.040;2024-02-26T13:28:06;25.55;;;9.68;;
19167;SDS011;9716;53.114;18.040;2024-02-26T13:30:35;16.42;;;8.23;;
19167;SDS011;9716;53.114;18.040;2024-02-26T13:33:08;22.52;;;7.50;;
19167;SDS011;9716;53.114;18.040;2024-02-26T13:35:38;22.30;;;8.30;;
19167;SDS011;9716;53.114;18.040;2024-02-26T13:38:08;18.85;;;8.00;;
19167;SDS011;9716;53.114;18.040;2024-02-26T13:40:39;15.60;;;7.22;;
19167;SDS011;9716;53.114;18.040;2024-02-26T13:43:08;16.50;;;7.63;;
19167;SDS011;9716;53.114;18.040;2024-02-26T13:45:37;19.77;;;8.23;;
19167;SDS011;9716;53.114;18.040;2024-02-26T13:48:07;18.08;;;8.70;;
19167;SDS011;9716;53.114;18.040;2024-02-26T13:50:38;21.95;;;7.97;;
19167;SDS011;9716;53.114;18.040;2024-02-26T13:53:08;18.52;;;8.23;;
19167;SDS011;9716;53.114;18.040;2024-02-26T13:55:36;24.20;;;8.30;;
19167;SDS011;9716;53.114;18.040;2024-02-26T13:58:05;14.85;;;6.82;;
19167;SDS011;9716;53.114;18.040;2024-02-26T14:00:33;18.85;;;8.07;;
19167;SDS011;9716;53.114;18.040;2024-02-26T14:03:02;21.10;;;8.23;;
19167;SDS011;9716;53.114;18.040;2024-02-26T14:05:32;20.35;;;8.23;;
19167;SDS011;9716;53.114;18.040;2024-02-26T14:08:01;15.18;;;6.80;;
19167;SDS011;9716;53.114;18.040;2024-02-26T14:10:31;23.75;;;9.45;;
19167;SDS011;9716;53.114;18.040;2024-02-26T14:13:00;22.73;;;9.20;;
19167;SDS011;9716;53.114;18.040;2024-02-26T14:15:28;19.35;;;8.23;;
19167;SDS011;9716;53.114;18.040;2024-02-26T14:18:00;19.88;;;8.43;;
19167;SDS011;9716;53.114;18.040;2024-02-26T14:20:31;17.92;;;8.10;;
19167;SDS011;9716;53.114;18.040;2024-02-26T14:23:02;19.92;;;7.05;;
19167;SDS011;9716;53.114;18.040;2024-02-26T14:25:32;19.05;;;7.38;;
19167;SDS011;9716;53.114;18.040;2024-02-26T14:28:01;24.25;;;9.10;;
19167;SDS011;9716;53.114;18.040;2024-02-26T14:30:29;17.75;;;8.38;;
19167;SDS011;9716;53.114;18.040;2024-02-26T14:32:59;25.13;;;8.65;;
19167;SDS011;9716;53.114;18.040;2024-02-26T14:35:30;20.92;;;9.65;;
19167;SDS011;9716;53.114;18.040;2024-02-26T14:37:59;14.40;;;7.00;;